Time;durP1;ratioP1;P1;durP2;ratioP2;P2;SDS_P1;SDS_P2;PMS_P1;PMS_P2;Temp;Humidity;BMP_temperature;BMP_pressure;BME280_temperature;BME280_humidity;BME280_pressure;Samples;Min_cycle;Max_cycle;Signal;HPM_P1;HPM_P2
2021/01/27 00:00:13;;;;;;;6.10;1.15;;;27.10;61.20;;;;;;4149956;28;20049;-51
2021/01/27 00:02:15;;;;;;;3.33;1.27;;;27.10;61.40;;;;;;4150563;28;20518;-56
2021/01/27 00:04:18;;;;;;;5.75;1.60;;;27.20;61.40;;;;;;4152970;28;20083;-56
2021/01/27 00:06:20;;;;;;;3.47;1.25;;;27.20;61.40;;;;;;4152456;28;20037;-54
2021/01/27 00:08:23;;;;;;;5.95;1.05;;;27.20;61.40;;;;;;4159752;28;20075;-57
2021/01/27 00:10:26;;;;;;;3.78;1.23;;;27.20;61.40;;;;;;4167754;28;20037;-56
2021/01/27 00:12:27;;;;;;;;;;;27.20;61.20;;;;;;4169599;28;20045;-49
2021/01/27 00:14:29;;;;;;;6.72;1.33;;;27.20;61.20;;;;;;4166338;28;19927;-52
2021/01/27 00:16:31;;;;;;;4.85;1.17;;;27.30;61.30;;;;;;4165455;28;20489;-51
2021/01/27 00:18:33;;;;;;;3.45;1.25;;;27.30;61.30;;;;;;4150774;28;20059;-47
2021/01/27 00:20:36;;;;;;;3.27;1.20;;;27.30;61.20;;;;;;4147946;28;20510;-55
2021/01/27 00:22:38;;;;;;;1.88;0.98;;;27.30;61.20;;;;;;4153183;28;20278;-53
2021/01/27 00:24:40;;;;;;;2.67;0.97;;;27.30;61.10;;;;;;4170493;28;20061;-53
2021/01/27 00:26:42;;;;;;;4.32;1.20;;;;;;;;;;4164825;28;20045;-52
2021/01/27 00:28:44;;;;;;;4.10;1.00;;;;;;;;;;4163353;28;20071;-49
2021/01/27 00:30:47;;;;;;;3.38;1.30;;;;;;;;;;4150491;28;20132;-49
2021/01/27 00:32:49;;;;;;;4.43;1.50;;;;;;;;;;4153207;28;20041;-48
2021/01/27 00:34:52;;;;;;;2.97;1.33;;;;;;;;;;4149923;28;20205;-50
2021/01/27 00:36:54;;;;;;;2.93;1.13;;;;;;;;;;4152441;28;20234;-51
2021/01/27 00:38:56;;;;;;;3.53;1.13;;;;;;;;;;4165311;28;20369;-52
2021/01/27 00:40:58;;;;;;;4.78;1.50;;;;;;;;;;4158447;28;20041;-49
2021/01/27 00:43:00;;;;;;;4.18;1.73;;;;;;;;;;4151426;28;20048;-53
2021/01/27 00:45:02;;;;;;;4.15;1.50;;;;;;;;;;4148828;28;20053;-55
2021/01/27 00:47:04;;;;;;;5.53;1.50;;;;;;;;;;4149508;28;20148;-49
2021/01/27 00:49:06;;;;;;;5.75;1.70;;;;;;;;;;4149050;28;20116;-57
2021/01/27 00:51:08;;;;;;;3.60;1.33;;;;;;;;;;4143283;28;20049;-59
2021/01/27 00:53:10;;;;;;;4.78;1.85;;;;;;;;;;4149162;28;20579;-59
2021/01/27 00:55:31;;;;;;;4.07;1.80;;;;;;;;;;4153764;28;20424;-57
2021/01/27 00:57:33;;;;;;;4.07;1.52;;;;;;;;;;4149627;28;20355;-55
2021/01/27 00:59:35;;;;;;;4.15;1.52;;;;;;;;;;4160911;28;20378;-51
2021/01/27 01:01:37;;;;;;;4.68;1.38;;;;;;;;;;4165060;28;20514;-48
2021/01/27 01:03:39;;;;;;;4.43;1.75;;;;;;;;;;4155795;28;20480;-53
2021/01/27 01:05:42;;;;;;;3.13;1.38;;;;;;;;;;4160521;28;20368;-55
2021/01/27 01:07:44;;;;;;;;;;;;;;;;;;4168677;28;20178;-51
2021/01/27 01:09:46;;;;;;;4.32;1.40;;;;;;;;;;4166626;28;19905;-56
2021/01/27 01:11:48;;;;;;;2.88;1.20;;;;;;;;;;4154261;28;20093;-45
2021/01/27 01:13:50;;;;;;;3.03;1.42;;;;;;;;;;4148942;28;20037;-49
2021/01/27 01:15:53;;;;;;;6.65;1.73;;;;;;;;;;4167942;28;20448;-47
2021/01/27 01:17:55;;;;;;;3.83;1.40;;;;;;;;;;4153768;28;20053;-53
2021/01/27 01:19:57;;;;;;;5.50;1.50;;;;;;;;;;4148912;28;20041;-49
2021/01/27 01:21:59;;;;;;;3.85;1.50;;;;;;;;;;4151795;28;20043;-50
2021/01/27 01:24:01;;;;;;;4.07;1.63;;;;;;;;;;4148925;28;20042;-53
2021/01/27 01:26:03;;;;;;;4.78;1.48;;;;;;;;;;4159161;28;20045;-50
2021/01/27 01:28:06;;;;;;;3.35;1.40;;;;;;;;;;4157087;28;20040;-54
2021/01/27 01:30:09;;;;;;;5.20;1.38;;;;;;;;;;4173287;28;20045;-54
2021/01/27 01:32:11;;;;;;;18.30;2.00;;;;;;;;;;4161081;28;20113;-51
2021/01/27 01:34:13;;;;;;;3.53;1.75;;;;;;;;;;4162901;28;20041;-50
2021/01/27 01:36:16;;;;;;;4.82;1.40;;;;;;;;;;4150460;28;20033;-48
2021/01/27 01:38:18;;;;;;;4.82;1.42;;;;;;;;;;4151951;28;20142;-47
2021/01/27 01:40:30;;;;;;;4.00;1.50;;;;;;;;;;4151770;28;20028;-49
2021/01/27 01:42:32;;;;;;;3.92;1.50;;;;;;;;;;4154255;28;20835;-51
2021/01/27 01:44:35;;;;;;;4.55;1.42;;;;;;;;;;4154190;28;20420;-50
2021/01/27 01:46:37;;;;;;;4.60;1.65;;;;;;;;;;4150369;28;20173;-55
2021/01/27 01:48:42;;;;;;;3.35;1.38;;;;;;;;;;4153283;28;20349;-56
2021/01/27 01:50:44;;;;;;;5.85;2.03;;;;;;;;;;4161404;28;20123;-52
2021/01/27 01:52:46;;;;;;;3.50;1.77;;;;;;;;;;4152987;28;20030;-55
2021/01/27 01:54:53;;;;;;;5.75;1.75;;;;;;;;;;4143427;28;20447;-57
2021/01/27 01:57:01;;;;;;;3.65;1.40;;;;;;;;;;4163562;28;20030;-58
2021/01/27 01:59:05;;;;;;;2.40;1.20;;;;;;;;;;4160912;28;20558;-57
2021/01/27 02:01:08;;;;;;;5.40;1.75;;;;;;;;;;4153518;28;20037;-57
2021/01/27 02:03:11;;;;;;;4.25;1.70;;;;;;;;;;4149421;28;20045;-58
2021/01/27 02:05:16;;;;;;;4.53;1.92;;;;;;;;;;4154008;28;20038;-58
2021/01/27 02:07:18;;;;;;;4.70;1.52;;;;;;;;;;4151895;28;20142;-58
2021/01/27 02:09:20;;;;;;;5.82;1.60;;;;;;;;;;4155460;28;20079;-56
2021/01/27 02:11:27;;;;;;;4.78;1.30;;;;;;;;;;4149574;28;20064;-58
2021/01/27 02:13:42;;;;;;;5.53;1.85;;;;;;;;;;4152404;28;20037;-58
2021/01/27 02:15:56;;;;;;;4.35;1.63;;;;;;;;;;4148281;28;20462;-58
2021/01/27 02:18:05;;;;;;;3.70;1.58;;;;;;;;;;4167303;28;20107;-58
2021/01/27 02:20:25;;;;;;;4.35;1.70;;;;;;;;;;4160116;28;20036;-58
2021/01/27 02:22:45;;;;;;;5.43;2.20;;;;;;;;;;4165737;28;20048;-58
2021/01/27 02:25:12;;;;;;;6.20;2.58;;;;;;;;;;4166915;28;20457;-59
2021/01/27 02:27:14;;;;;;;6.45;2.50;;;;;;;;;;4162943;28;20361;-58
2021/01/27 02:29:22;;;;;;;8.23;3.05;;;;;;;;;;4169434;28;20449;-58
2021/01/27 02:31:47;;;;;;;6.80;3.17;;;27.30;61.20;;;;;;4166611;28;20576;-60
2021/01/27 02:34:10;;;;;;;9.30;3.00;;;27.50;59.50;;;;;;4167907;28;20029;-49
2021/01/27 02:36:12;;;;;;;9.23;3.07;;;;;;;;;;4151067;28;20149;-52
2021/01/27 02:38:33;;;;;;;13.32;3.97;;;;;;;;;;4151285;28;20066;-54
2021/01/27 02:40:48;;;;;;;11.50;3.03;;;;;;;;;;4151689;28;20476;-53
2021/01/27 02:43:12;;;;;;;6.20;2.55;;;;;;;;;;4164684;28;20038;-56
2021/01/27 02:45:26;;;;;;;7.47;2.92;;;;;;;;;;4168853;28;20557;-59
2021/01/27 02:47:32;;;;;;;8.00;3.20;;;;;;;;;;4166328;28;20581;-57
2021/01/27 02:49:41;;;;;;;7.55;3.35;;;;;;;;;;4166900;28;20454;-59
2021/01/27 02:51:55;;;;;;;7.13;3.00;;;;;;;;;;4151997;28;20087;-57
2021/01/27 02:54:01;;;;;;;4.97;2.30;;;;;;;;;;4164669;28;20194;-58
2021/01/27 02:56:15;;;;;;;5.57;2.30;;;;;;;;;;4160713;28;20049;-59
2021/01/27 02:58:28;;;;;;;5.40;2.45;;;;;;;;;;4150878;28;20107;-65
2021/01/27 03:00:36;;;;;;;5.28;2.15;;;;;;;;;;4152591;28;20330;-60
2021/01/27 03:02:41;;;;;;;6.53;2.28;;;;;;;;;;4157534;28;20060;-60
2021/01/27 03:04:54;;;;;;;4.55;2.00;;;;;;;;;;4149530;28;20053;-59
2021/01/27 03:06:56;;;;;;;;;;;;;;;;;;4152292;28;20474;-63
2021/01/27 03:08:58;;;;;;;4.30;1.92;;;;;;;;;;4163614;28;20043;-65
2021/01/27 03:11:09;;;;;;;5.43;2.10;;;;;;;;;;4174169;28;20060;-63
2021/01/27 03:13:12;;;;;;;3.95;1.92;;;;;;;;;;4171781;28;20364;-61
2021/01/27 03:15:14;;;;;;;4.82;1.80;;;;;;;;;;4156508;28;20092;-64
2021/01/27 03:17:18;;;;;;;6.15;2.22;;;;;;;;;;4164052;28;20025;-64
2021/01/27 03:19:49;;;;;;;5.25;1.98;;;;;;;;;;4171460;28;20108;-65
2021/01/27 03:21:54;;;;;;;8.02;2.22;;;;;;;;;;4146408;28;20037;-60
2021/01/27 03:24:02;;;;;;;5.45;2.17;;;;;;;;;;4149208;28;20042;-60
2021/01/27 03:26:21;;;;;;;5.03;2.03;;;;;;;;;;4152805;28;20102;-61
2021/01/27 03:28:35;;;;;;;6.13;2.20;;;;;;;;;;4143413;28;20025;-61
2021/01/27 03:30:38;;;;;;;4.85;2.08;;;;;;;;;;4153441;28;20041;-63
2021/01/27 03:32:42;;;;;;;5.10;2.25;;;;;;;;;;4162377;28;20049;-60
2021/01/27 03:34:47;;;;;;;4.28;2.10;;;;;;;;;;4166870;28;20496;-60
2021/01/27 03:36:51;;;;;;;6.65;2.45;;;;;;;;;;4151519;28;20207;-63
2021/01/27 03:38:55;;;;;;;5.22;2.05;;;;;;;;;;4147417;28;20451;-65
2021/01/27 03:41:03;;;;;;;5.38;2.35;;;;;;;;;;4150674;28;20049;-62
2021/01/27 03:43:16;;;;;;;5.40;2.25;;;;;;;;;;4150232;28;20037;-64
2021/01/27 03:45:19;;;;;;;6.93;2.53;;;;;;;;;;4139331;28;20075;-57
2021/01/27 03:47:25;;;;;;;6.57;2.03;;;;;;;;;;4151541;28;20045;-57
2021/01/27 03:49:36;;;;;;;5.80;2.10;;;;;;;;;;4162852;28;20491;-57
2021/01/27 03:51:40;;;;;;;6.25;2.20;;;;;;;;;;4165722;28;20336;-58
2021/01/27 03:53:43;;;;;;;8.25;2.10;;;;;;;;;;4169527;28;20807;-54
2021/01/27 03:55:52;;;;;;;7.00;2.15;;;;;;;;;;4166540;28;20151;-56
2021/01/27 03:58:03;;;;;;;6.32;2.30;;;;;;;;;;4150435;28;20292;-58
2021/01/27 04:00:09;;;;;;;3.15;1.73;;;;;;;;;;4160868;28;20064;-58
2021/01/27 04:02:15;;;;;;;7.38;2.30;;;;;;;;;;4166982;28;20502;-56
2021/01/27 04:04:18;;;;;;;5.00;1.80;;;;;;;;;;4170444;28;20033;-57
2021/01/27 04:06:20;;;;;;;6.77;1.93;;;;;;;;;;4159980;28;20453;-56
2021/01/27 04:08:22;;;;;;;6.57;2.37;;;;;;;;;;4163156;28;20063;-56
2021/01/27 04:10:24;;;;;;;4.63;1.90;;;;;;;;;;4165854;28;20388;-57
2021/01/27 04:12:25;;;;;;;8.23;2.20;;;;;;;;;;4166449;28;20487;-58
2021/01/27 04:14:29;;;;;;;4.88;1.90;;;;;;;;;;4168746;28;20870;-59
2021/01/27 04:16:31;;;;;;;4.72;2.20;;;;;;;;;;4154997;28;21912;-56
2021/01/27 04:18:33;;;;;;;6.00;2.00;;;;;;;;;;4155445;28;20380;-58
2021/01/27 04:20:35;;;;;;;6.57;2.08;;;;;;;;;;4150184;28;20080;-60
2021/01/27 04:22:37;;;;;;;5.63;2.58;;;;;;;;;;4149398;28;20045;-58
2021/01/27 04:24:39;;;;;;;6.60;2.92;;;;;;;;;;4168345;28;20135;-61
2021/01/27 04:26:41;;;;;;;6.35;2.33;;;;;;;;;;4167788;28;20387;-61
2021/01/27 04:28:43;;;;;;;7.50;2.28;;;;;;;;;;4159729;28;20033;-60
2021/01/27 04:30:45;;;;;;;5.10;2.03;;;;;;;;;;4154020;28;20024;-60
2021/01/27 04:32:47;;;;;;;6.30;2.08;;;;;;;;;;4148594;28;20096;-62
2021/01/27 04:34:49;;;;;;;8.27;2.30;;;;;;;;;;4144670;28;20040;-63
2021/01/27 04:36:51;;;;;;;5.90;2.00;;;;;;;;;;4150026;28;20037;-59
2021/01/27 04:38:53;;;;;;;6.07;2.58;;;;;;;;;;4161916;28;20028;-59
2021/01/27 04:40:57;;;;;;;7.10;2.15;;;;;;;;;;4157628;28;20041;-58
2021/01/27 04:42:59;;;;;;;7.03;2.05;;;;;;;;;;4150240;28;20084;-61
2021/01/27 04:45:01;;;;;;;6.88;2.17;;;;;;;;;;4163207;28;20040;-55
2021/01/27 04:47:09;;;;;;;7.75;2.35;;;;;;;;;;4157327;28;20391;-56
2021/01/27 04:49:26;;;;;;;6.28;2.10;;;;;;;;;;4149753;28;20187;-58
2021/01/27 04:51:37;;;;;;;5.75;2.20;;;;;;;;;;4163057;28;20212;-63
2021/01/27 04:53:39;;;;;;;7.78;2.20;;;;;;;;;;4164627;28;20803;-64
2021/01/27 04:55:47;;;;;;;5.75;2.00;;;;;;;;;;4159890;28;20108;-59
2021/01/27 04:57:55;;;;;;;6.68;1.90;;;;;;;;;;4151778;28;20037;-59
2021/01/27 04:59:57;;;;;;;7.70;2.22;;;;;;;;;;4160466;28;20041;-61
2021/01/27 05:02:08;;;;;;;5.47;2.23;;;;;;;;;;4166831;28;20052;-61
2021/01/27 05:04:10;;;;;;;5.90;2.33;;;;;;;;;;4166506;28;20032;-60
2021/01/27 05:06:18;;;;;;;5.90;1.90;;;;;;;;;;4169445;28;20155;-61
2021/01/27 05:08:26;;;;;;;5.57;1.80;;;;;;;;;;4171303;28;20533;-58
2021/01/27 05:10:35;;;;;;;6.82;2.10;;;;;;;;;;4167366;28;20028;-59
2021/01/27 05:12:42;;;;;;;5.07;2.05;;;;;;;;;;4152592;28;20418;-59
2021/01/27 05:14:47;;;;;;;5.53;2.47;;;;;;;;;;4153889;28;20046;-58
2021/01/27 05:16:51;;;;;;;6.38;2.00;;;;;;;;;;4152295;28;20064;-60
2021/01/27 05:18:55;;;;;;;8.60;2.40;;;;;;;;;;4151418;28;20136;-61
2021/01/27 05:20:57;;;;;;;4.25;1.92;;;;;;;;;;4149985;28;20045;-58
2021/01/27 05:22:59;;;;;;;8.32;2.22;;;;;;;;;;4142758;28;20079;-58
2021/01/27 05:25:01;;;;;;;9.57;2.38;;;;;;;;;;4151642;28;20181;-59
2021/01/27 05:27:15;;;;;;;5.22;2.10;;;;;;;;;;4164397;28;20033;-61
2021/01/27 05:29:22;;;;;;;10.65;2.05;;;;;;;;;;4158772;28;20045;-59
2021/01/27 05:31:24;;;;;;;7.85;1.90;;;;;;;;;;4154479;28;20147;-58
2021/01/27 05:33:44;;;;;;;6.45;1.90;;;;;;;;;;4152109;28;20513;-59
2021/01/27 05:35:46;;;;;;;5.95;1.85;;;;;;;;;;4154213;28;20109;-58
2021/01/27 05:37:48;;;;;;;5.63;1.60;;;;;;;;;;4150670;28;20112;-57
2021/01/27 05:39:50;;;;;;;4.97;1.80;;;;;;;;;;4149103;28;20079;-60
2021/01/27 05:42:12;;;;;;;4.88;1.83;;;;;;;;;;4164406;28;20039;-58
2021/01/27 05:44:15;;;;;;;4.47;1.75;;;;;;;;;;4155057;28;20040;-62
2021/01/27 05:46:30;;;;;;;4.68;1.75;;;;;;;;;;4155868;28;20462;-59
2021/01/27 05:48:34;;;;;;;4.63;2.00;;;;;;;;;;4164389;28;20029;-59
2021/01/27 05:50:37;;;;;;;5.47;2.15;;;;;;;;;;4160726;28;20124;-61
2021/01/27 05:52:39;;;;;;;5.55;1.98;;;;;;;;;;4160210;28;20049;-58
2021/01/27 05:54:41;;;;;;;4.53;1.85;;;;;;;;;;4145199;28;20530;-61
2021/01/27 05:56:43;;;;;;;6.85;2.05;;;;;;;;;;4163664;28;20174;-61
2021/01/27 05:59:06;;;;;;;6.63;2.10;;;;;;;;;;4158884;28;20537;-63
2021/01/27 06:01:15;;;;;;;4.72;1.75;;;;;;;;;;4140398;28;20458;-59
2021/01/27 06:03:24;;;;;;;3.63;1.67;;;;;;;;;;4149717;28;21161;-62
2021/01/27 06:05:44;;;;;;;5.47;2.15;;;;;;;;;;4147982;28;20235;-61
2021/01/27 06:07:47;;;;;;;6.47;1.92;;;;;;;;;;4152045;28;20505;-64
2021/01/27 06:09:50;;;;;;;5.78;1.85;;;;;;;;;;4171290;28;20065;-64
2021/01/27 06:11:51;;;;;;;;;;;;;;;;;;4170218;28;20120;-61
2021/01/27 06:14:04;;;;;;;6.43;1.88;;;;;;;;;;4165967;28;19913;-64
2021/01/27 06:16:23;;;;;;;4.55;1.80;;;;;;;;;;4171027;28;20021;-64
2021/01/27 06:18:27;;;;;;;7.22;2.20;;;;;;;;;;4166477;28;20063;-61
2021/01/27 06:20:35;;;;;;;5.55;1.70;;;;;;;;;;4169106;28;20502;-62
2021/01/27 06:23:02;;;;;;;6.40;2.10;;;;;;;;;;4167522;28;20103;-63
2021/01/27 06:25:10;;;;;;;6.80;2.13;;;;;;;;;;4151493;28;20042;-63
2021/01/27 06:27:32;;;;;;;5.07;1.88;;;;;;;;;;4149513;28;20026;-63
2021/01/27 06:29:53;;;;;;;5.72;2.10;;;;;;;;;;4160793;28;20091;-62
2021/01/27 06:32:07;;;;;;;4.57;2.20;;;;;;;;;;4163972;28;20037;-62
2021/01/27 06:34:20;;;;;;;5.63;2.20;;;;;;;;;;4163443;28;20033;-65
2021/01/27 06:36:35;;;;;;;5.32;2.20;;;;;;;;;;4170836;28;20537;-66
2021/01/27 06:38:47;;;;;;;7.05;2.20;;;;;;;;;;4165741;28;20156;-65
2021/01/27 06:41:00;;;;;;;7.13;2.30;;;;;;;;;;4162547;28;20155;-63
2021/01/27 06:43:20;;;;;;;6.30;2.30;;;;;;;;;;4168951;28;20064;-66
2021/01/27 06:45:40;;;;;;;8.00;2.72;;;;;;;;;;4146127;28;20060;-55
2021/01/27 06:47:53;;;;;;;7.80;2.97;;;;;;;;;;4150683;28;20034;-60
2021/01/27 06:50:01;;;;;;;9.07;3.30;;;;;;;;;;4149920;28;20064;-59
2021/01/27 06:52:03;;;;;;;11.55;3.75;;;;;;;;;;4153847;28;20037;-60
2021/01/27 06:54:08;;;;;;;7.28;3.15;;;;;;;;;;4151452;28;20044;-59
2021/01/27 06:56:09;;;;;;;9.38;2.67;;;;;;;;;;4161379;28;20037;-59
2021/01/27 06:58:18;;;;;;;6.95;2.30;;;;;;;;;;4168305;28;20493;-60
2021/01/27 07:00:42;;;;;;;6.15;2.15;;;;;;;;;;4166256;28;20033;-59
2021/01/27 07:02:56;;;;;;;5.80;2.08;;;;;;;;;;4164646;28;20162;-57
2021/01/27 07:05:08;;;;;;;6.72;2.35;;;;;;;;;;4157478;28;21243;-58
2021/01/27 07:07:28;;;;;;;7.47;2.22;;;;;;;;;;4149250;28;20139;-58
2021/01/27 07:09:36;;;;;;;5.70;2.00;;;;;;;;;;4149523;28;20048;-54
2021/01/27 07:12:05;;;;;;;6.70;1.75;;;;;;;;;;4156843;28;20577;-58
2021/01/27 07:14:30;;;;;;;5.28;2.10;;;;;;;;;;4136503;28;20043;-60
2021/01/27 07:16:43;;;;;;;5.88;2.25;;;;;;;;;;4137144;28;20037;-58
2021/01/27 07:19:00;;;;;;;7.00;1.83;;;;;;;;;;4166033;28;20028;-61
2021/01/27 07:21:08;;;;;;;5.65;1.73;;;;;;;;;;4169825;28;20304;-60
2021/01/27 07:23:46;;;;;;;6.72;1.75;;;;;;;;;;4159106;28;20638;-56
2021/01/27 07:26:00;;;;;;;6.82;1.92;;;;;;;;;;4100643;28;20042;-58
2021/01/27 07:28:12;;;;;;;5.22;1.50;;;;;;;;;;4142482;28;20037;-55
2021/01/27 07:30:19;;;;;;;6.07;1.63;;;;;;;;;;4165099;28;20371;-50
2021/01/27 07:32:39;;;;;;;5.13;1.38;;;;;;;;;;4162279;28;20033;-58
2021/01/27 07:34:45;;;;;;;5.53;1.67;;;;;;;;;;4164114;28;20033;-57
2021/01/27 07:36:50;;;;;;;2.83;1.50;;;;;;;;;;4171415;28;20095;-59
2021/01/27 07:38:55;;;;;;;4.25;1.83;;;;;;;;;;4151241;28;20456;-58
2021/01/27 07:40:58;;;;;;;5.10;1.80;;;;;;;;;;4145604;28;20041;-59
2021/01/27 07:43:08;;;;;;;4.43;1.63;;;;;;;;;;4161433;28;20259;-59
2021/01/27 07:45:15;;;;;;;7.85;1.65;;;;;;;;;;4150068;28;20678;-57
2021/01/27 07:47:23;;;;;;;5.50;1.50;;;;;;;;;;4152030;28;20561;-56
2021/01/27 07:49:34;;;;;;;5.35;1.63;;;;;;;;;;4160789;28;20041;-56
2021/01/27 07:51:42;;;;;;;4.70;1.80;;;;;;;;;;4164637;28;20039;-57
2021/01/27 07:53:47;;;;;;;3.83;1.30;;;;;;;;;;4156835;28;20355;-61
2021/01/27 07:56:01;;;;;;;3.78;1.70;;;;;;;;;;4158791;28;20091;-60
2021/01/27 07:58:06;;;;;;;5.43;1.65;;;;;;;;;;4162664;28;20094;-60
2021/01/27 08:00:12;;;;;;;5.72;2.75;;;;;;;;;;4147259;28;20163;-62
2021/01/27 08:02:20;;;;;;;5.10;3.53;;;;;;;;;;4145215;28;20479;-61
2021/01/27 08:04:48;;;;;;;4.63;3.00;;;;;;;;;;4141741;28;20029;-58
2021/01/27 08:06:52;;;;;;;7.82;3.53;;;;;;;;;;4145961;28;20060;-65
2021/01/27 08:09:03;;;;;;;7.38;3.17;;;;;;;;;;4144149;28;20037;-61
2021/01/27 08:11:12;;;;;;;5.63;1.77;;;;;;;;;;4148728;28;20514;-59
2021/01/27 08:13:29;;;;;;;10.73;2.53;;;;;;;;;;4155626;28;20025;-58
2021/01/27 08:15:31;;;;;;;4.60;2.97;;;;;;;;;;4159838;28;20033;-55
2021/01/27 08:17:45;;;;;;;6.53;3.28;;;;;;;;;;4157658;28;20037;-59
2021/01/27 08:20:07;;;;;;;8.90;3.10;;;;;;;;;;4162575;28;20116;-61
2021/01/27 08:22:09;;;;;;;4.63;2.60;;;;;;;;;;4163175;28;20044;-62
2021/01/27 08:24:31;;;;;;;5.65;2.83;;;;;;;;;;4162334;28;20064;-60
2021/01/27 08:26:51;;;;;;;5.45;2.88;;;;;;;;;;4153223;28;20511;-60
2021/01/27 08:29:05;;;;;;;5.00;2.60;;;;;;;;;;4147222;28;20612;-60
2021/01/27 08:31:06;;;;;;;;;;;;;;;;;;4162837;28;20025;-59
2021/01/27 08:33:37;;;;;;;5.05;2.60;;;;;;;;;;4162460;28;19940;-61
2021/01/27 08:35:41;;;;;;;6.30;2.78;;;;;;;;;;4141492;28;20039;-61
2021/01/27 08:37:43;;;;;;;6.25;2.65;;;;;;;;;;4149014;28;20447;-59
2021/01/27 08:39:45;;;;;;;5.55;2.80;;;;;;;;;;4149806;28;20272;-59
2021/01/27 08:41:53;;;;;;;6.75;2.72;;;;;;;;;;4150391;28;20566;-62
2021/01/27 08:43:56;;;;;;;6.35;2.70;;;;;;;;;;4155305;28;20037;-60
2021/01/27 08:45:58;;;;;;;4.68;2.55;;;;;;;;;;4159354;28;20442;-59
2021/01/27 08:48:04;;;;;;;6.13;2.78;;;;;;;;;;4152223;28;20025;-61
2021/01/27 08:50:26;;;;;;;5.88;2.53;;;;;;;;;;4151988;28;20385;-59
2021/01/27 08:52:28;;;;;;;6.05;2.72;;;;;;;;;;4153635;28;20037;-59
2021/01/27 08:54:30;;;;;;;5.53;2.70;;;;;;;;;;4165478;28;20024;-59
2021/01/27 08:56:52;;;;;;;4.80;2.42;;;;;;;;;;4161432;28;21050;-62
2021/01/27 08:59:12;;;;;;;6.22;2.80;;;;;;;;;;4155489;28;20592;-60
2021/01/27 09:01:23;;;;;;;7.32;3.00;;;;;;;;;;4141784;28;20124;-57
2021/01/27 09:03:45;;;;;;;5.85;2.65;;;;;;;;;;4139112;28;20144;-56
2021/01/27 09:05:47;;;;;;;7.47;2.80;;;;;;;;;;4142377;28;20041;-56
2021/01/27 09:08:01;;;;;;;8.27;2.40;;;;;;;;;;4142477;28;20049;-54
2021/01/27 09:10:04;;;;;;;13.65;2.35;;;;;;;;;;4162431;28;20033;-50
2021/01/27 09:12:08;;;;;;;11.93;2.53;;;;;;;;;;4158310;28;20086;-53
2021/01/27 09:14:15;;;;;;;9.35;2.22;;;;;;;;;;4150802;28;20105;-55
2021/01/27 09:16:19;;;;;;;8.98;2.45;;;;;;;;;;4147789;28;20029;-52
2021/01/27 09:18:21;;;;;;;7.65;2.10;;;;;;;;;;4146923;28;20029;-55
2021/01/27 09:20:28;;;;;;;6.30;1.93;;;;;;;;;;4140032;28;20521;-51
2021/01/27 09:22:30;;;;;;;7.03;2.70;;;;;;;;;;4147018;28;20044;-52
2021/01/27 09:24:43;;;;;;;8.82;2.22;;;;;;;;;;4161373;28;20068;-51
2021/01/27 09:26:44;;;;;;;;;;;;;;;;;;4160385;28;20048;-49
2021/01/27 09:28:47;;;;;;;5.97;2.25;;;;;;;;;;4154605;28;20198;-53
2021/01/27 09:30:50;;;;;;;7.65;2.00;;;;;;;;;;4145255;28;20133;-51
2021/01/27 09:32:52;;;;;;;4.38;2.17;;;;;;;;;;4144385;28;20064;-52
2021/01/27 09:34:54;;;;;;;5.30;2.55;;;;;;;;;;4146808;28;20047;-51
2021/01/27 09:37:00;;;;;;;8.00;2.28;;;;;;;;;;4158849;28;20485;-49
2021/01/27 09:39:02;;;;;;;5.70;1.88;;;;;;;;;;4143120;28;20390;-48
2021/01/27 09:41:11;;;;;;;6.30;2.30;;;;;;;;;;4149686;28;20623;-49
2021/01/27 09:43:18;;;;;;;9.02;2.38;;;;;;;;;;4158250;28;20037;-47
2021/01/27 09:45:26;;;;;;;6.60;2.80;;;;;;;;;;4146279;28;20041;-51
2021/01/27 09:47:29;;;;;;;6.32;2.50;;;;;;;;;;4144759;28;20482;-50
2021/01/27 09:49:32;;;;;;;5.05;2.53;;;;;;;;;;4145749;28;20302;-49
2021/01/27 09:51:35;;;;;;;8.75;2.40;;;;;;;;;;4149895;28;20119;-46
2021/01/27 09:53:38;;;;;;;7.03;2.40;;;;;;;;;;4147909;28;20510;-50
2021/01/27 09:55:41;;;;;;;5.95;2.40;;;;;;;;;;4149565;28;20092;-51
2021/01/27 09:57:46;;;;;;;5.47;2.25;;;;;;;;;;4148372;28;20126;-51
2021/01/27 09:59:52;;;;;;;5.47;2.45;;;;;;;;;;4147612;28;20047;-46
2021/01/27 10:01:54;;;;;;;5.05;2.58;;;;;;;;;;4146209;28;20418;-46
2021/01/27 10:04:09;;;;;;;7.32;2.50;;;;;;;;;;4147084;28;20041;-48
2021/01/27 10:06:29;;;;;;;7.60;2.70;;;;;;;;;;4141091;28;20060;-48
2021/01/27 10:08:33;;;;;;;5.55;2.35;;;;;;;;;;4143993;28;20099;-51
2021/01/27 10:10:36;;;;;;;4.50;2.47;;;;;;;;;;4148505;28;20136;-52
2021/01/27 10:12:38;;;;;;;6.65;2.88;;;;;;;;;;4164027;28;20033;-48
2021/01/27 10:14:41;;;;;;;7.07;2.45;;;;;;;;;;4160174;28;20419;-54
2021/01/27 10:16:51;;;;;;;5.20;2.40;;;;;;;;;;4160295;28;20359;-49
2021/01/27 10:19:00;;;;;;;5.80;2.70;;;;;;;;;;4161332;28;20073;-53
2021/01/27 10:21:04;;;;;;;7.00;2.85;;;;;;;;;;4154626;28;20067;-45
2021/01/27 10:23:10;;;;;;;8.38;3.00;;;;;;;;;;4172569;28;20037;-48
2021/01/27 10:25:30;;;;;;;6.15;2.63;;;;;;;;;;4170530;28;20021;-53
2021/01/27 10:27:37;;;;;;;8.07;2.70;;;;;;;;;;4153267;28;20120;-46
2021/01/27 10:29:40;;;;;;;5.40;2.35;;;;;;;;;;4165893;28;20045;-49
2021/01/27 10:31:42;;;;;;;5.85;2.40;;;;;;;;;;4173375;28;20041;-52
2021/01/27 10:33:50;;;;;;;6.63;2.42;;;;;;;;;;4173346;28;20120;-56
2021/01/27 10:35:52;;;;;;;7.65;2.83;;;;;;;;;;4154425;28;20065;-51
2021/01/27 10:38:14;;;;;;;6.20;2.60;;;;;;;;;;4161231;28;20025;-56
2021/01/27 10:40:19;;;;;;;5.95;2.28;;;;;;;;;;4169084;28;20444;-57
2021/01/27 10:42:23;;;;;;;5.05;2.80;;;;;;;;;;4150777;28;20041;-52
2021/01/27 10:44:30;;;;;;;4.95;2.47;;;;;;;;;;4155556;28;20045;-52
2021/01/27 10:46:35;;;;;;;5.03;2.53;;;;;;;;;;4152748;28;20053;-54
2021/01/27 10:48:37;;;;;;;4.07;2.28;;;;;;;;;;4153936;28;20140;-53
2021/01/27 10:50:44;;;;;;;6.72;2.60;;;;;;;;;;4154161;28;20045;-54
2021/01/27 10:52:46;;;;;;;6.70;2.35;;;;;;;;;;4153884;28;20184;-54
2021/01/27 10:54:48;;;;;;;4.60;2.25;;;;;;;;;;4155206;28;20403;-50
2021/01/27 10:56:52;;;;;;;6.38;2.50;;;;;;;;;;4164128;28;20136;-49
2021/01/27 10:58:53;;;;;;;;;;;;;;;;;;4163942;28;20131;-54
2021/01/27 11:00:55;;;;;;;5.40;2.28;;;;;;;;;;4154439;28;20371;-53
2021/01/27 11:02:57;;;;;;;7.13;2.92;;;;;;;;;;4144425;28;20287;-56
2021/01/27 11:05:00;;;;;;;6.25;2.40;;;;;;;;;;4157301;28;20101;-55
2021/01/27 11:07:02;;;;;;;4.68;2.22;;;;;;;;;;4166446;28;20433;-53
2021/01/27 11:09:04;;;;;;;5.53;2.70;;;;;;;;;;4171084;28;20107;-52
2021/01/27 11:11:06;;;;;;;5.43;2.53;;;;;;;;;;4170095;28;20151;-51
2021/01/27 11:13:08;;;;;;;5.97;2.50;;;;;;;;;;4169254;28;20028;-55
2021/01/27 11:15:11;;;;;;;4.93;2.50;;;;;;;;;;4164123;28;20048;-46
2021/01/27 11:17:13;;;;;;;6.38;2.60;;;;;;;;;;4169952;28;20033;-53
2021/01/27 11:19:15;;;;;;;3.80;2.30;;;;;;;;;;4164313;28;20115;-50
2021/01/27 11:21:18;;;;;;;8.05;3.00;;;;;;;;;;4175786;28;20025;-56
2021/01/27 11:23:21;;;;;;;6.47;2.75;;;;;;;;;;4167402;28;20040;-55
2021/01/27 11:25:24;;;;;;;4.88;2.38;;;;;;;;;;4165137;28;20035;-57
2021/01/27 11:27:26;;;;;;;7.20;2.50;;;;;;;;;;4153827;28;20029;-58
2021/01/27 11:29:29;;;;;;;6.32;2.40;;;;;;;;;;4164317;28;20221;-58
2021/01/27 11:31:31;;;;;;;6.55;2.50;;;;;;;;;;4169343;28;20427;-56
2021/01/27 11:33:33;;;;;;;7.38;3.10;;;;;;;;;;4168874;28;20028;-55
2021/01/27 11:35:35;;;;;;;15.15;3.08;;;;;;;;;;4167341;28;20172;-52
2021/01/27 11:37:37;;;;;;;10.07;2.80;;;;;;;;;;4170826;28;20439;-52
2021/01/27 11:39:39;;;;;;;9.13;2.65;;;;;;;;;;4154019;28;20626;-53
2021/01/27 11:41:41;;;;;;;8.23;2.42;;;;;;;;;;4154634;28;20493;-48
2021/01/27 11:43:44;;;;;;;5.50;2.28;;;;;;;;;;4165930;28;20044;-53
2021/01/27 11:45:46;;;;;;;5.95;2.20;;;;;;;;;;4150833;28;20704;-53
2021/01/27 11:47:48;;;;;;;6.30;2.10;;;;;;;;;;4146217;28;20041;-46
2021/01/27 11:49:50;;;;;;;4.43;1.70;;;27.60;59.90;;;;;;4145916;28;20178;-47
2021/01/27 11:51:54;;;;;;;4.00;1.83;;;26.60;62.00;;;;;;4146925;28;20079;-52
2021/01/27 11:53:56;;;;;;;7.93;2.15;;;26.60;62.60;;;;;;4161372;28;20159;-56
2021/01/27 11:55:59;;;;;;;7.50;1.88;;;26.60;62.40;;;;;;4165648;28;20041;-57
2021/01/27 11:58:01;;;;;;;6.82;2.03;;;26.60;62.20;;;;;;4149130;28;20515;-56
2021/01/27 12:00:05;;;;;;;5.97;1.88;;;26.60;62.20;;;;;;4165603;28;20025;-47
2021/01/27 12:02:08;;;;;;;6.30;2.10;;;26.60;62.00;;;;;;4162098;28;20402;-51
2021/01/27 12:04:10;;;;;;;4.23;1.83;;;26.50;61.90;;;;;;4177348;28;20033;-53
2021/01/27 12:06:12;;;;;;;4.55;1.95;;;26.50;62.00;;;;;;4158535;28;20071;-49
2021/01/27 12:08:16;;;;;;;3.60;2.05;;;26.50;62.00;;;;;;4161947;28;20037;-51
2021/01/27 12:10:18;;;;;;;9.10;2.05;;;26.50;62.00;;;;;;4168069;28;20028;-52
2021/01/27 12:12:20;;;;;;;4.07;2.17;;;26.40;61.90;;;;;;4172223;28;20025;-54
2021/01/27 12:14:23;;;;;;;3.60;1.75;;;26.40;62.00;;;;;;4159307;28;20049;-56
2021/01/27 12:16:25;;;;;;;6.78;2.05;;;26.40;62.00;;;;;;4152305;28;20069;-53
2021/01/27 12:18:27;;;;;;;6.88;2.22;;;26.40;62.00;;;;;;4153441;28;20035;-56
2021/01/27 12:20:29;;;;;;;7.38;2.28;;;26.40;62.00;;;;;;4165534;28;20045;-55
2021/01/27 12:22:31;;;;;;;6.90;2.33;;;26.40;62.00;;;;;;4165373;28;20049;-53
2021/01/27 12:24:34;;;;;;;4.07;2.13;;;26.40;62.10;;;;;;4153748;28;20060;-47
2021/01/27 12:26:36;;;;;;;7.30;2.45;;;26.30;62.20;;;;;;4163224;28;20075;-48
2021/01/27 12:28:38;;;;;;;7.05;2.42;;;26.30;62.40;;;;;;4172089;28;20199;-52